Ithaca, NY (14850)

5:45 AM EDT on April 24, 2017 (GMT -0400)
Fall Creek Neighborhood | | Change Station
Active Advisory: Flood Warning

Elev 390 ft 42.45 °N, 76.50 °W | Updated 27 seconds ago

Clear
Clear
38.7 °F
Feels Like 39 °F
N
0.0
Wind Variable Wind from South
Gusts 0.0 mph

Today
High -- | Low -- °F
--% Chance of Precip.
Yesterday
High -- | Low -- °F
Precip. -- in
Pressure 30.11 in
Visibility 10.0 miles
Clouds Clear
Windchill 39 °F
Dew Point 36 °F
Humidity 90%
Rainfall 0.00 in
Snow Depth Not available.
6:10 AM 7:58 PM
Waning Crescent, 6% visible
METAR KITH 240856Z AUTO 09004KT 10SM CLR 05/02 A3010 RMK AO2 SLP195 T00500022 53005
Pressure 30.11 in
Visibility 10.0 miles
Clouds Clear
Windchill 39 °F
Dew Point 36 °F
Humidity 90%
Rainfall 0.00 in
Snow Depth Not available.
6:10 AM 7:58 PM
Waning Crescent, 6% visible
METAR KITH 240856Z AUTO 09004KT 10SM CLR 05/02 A3010 RMK AO2 SLP195 T00500022 53005

Get Your Daily Forecast Email!

Thanks for signing up!

Be on the lookout for a verification email in your inbox.

You'll start receiving severe weather alerts in your inbox..

×

10-Day Weather Forecast

Almanac

Astronomy

Apr. 24, 2017 Rise Set
Actual Time
Civil Twilight
Nautical Twilight
Astronomical Twilight
Moon
Length of Visible Light
Length of Day
Tomorrow will be .
, % of the Moon is Illuminated

Today's Extremes

State Highs State Lows

Community

WunderPhotos

WunderBlog® & News

Nearby

Air Quality

  Air Quality AQ Index Pollutant
Not available.

Snow Depth

Station Depth Elevation

Earthquake Activity

City Distance Mag. Time & Date
Minimum magnitude displayed is 2.5.

Coastal Water Temperatures

Place Temperature

Stations

Nearby Weather Stations

Station Location Temp. Windchill Dew Point Humidity Wind Precip. Elev Updated Type
                   

Watches & Warnings

Flood Warning
Issued: 10:39 PM EDT Apr. 23, 2017 – National Weather Service

The Flood Warning continues for
the Cayuga Lake at Ithaca.
* Until further notice.
* At 9 PM Sunday the stage was 383.8 feet.
* Flood stage is 383.5 feet.
* Minor flooding is occurring and minor flooding is forecast into Tuesday.
* Forecast... the lake will remain near 383.8 feet.
* Impact... at 384.0 feet... flooding is likely along the south end of the
lake, impacting Parks such as Stewart Park and Allan h. Treman State Park. More of Route 13 in the southwestern district will be impacted including isolating the Titus towers area. About 15 houses near the Lakeshore in the Ulysses-Trumansburg area and the Lansing area will flood.


Lat... Lon 4298 7678 4297 7672 4272 7669 4246 7649
      4245 7653 4270 7677